Decoded Metar for PASA (SAVOONGA in AK, USA) (IATA:SVA) | Meteo·Mobile Aviation Weather
aviador You're here:

PASA Decoded Metar

SAVOONGA in AK, USA
Report Time2019-04-23 14:56:00
UTC Time2019-04-23 16:52:03
Flight Rules Old
Wind020° at 12 Gusting to 16 kt
W.Decomp.*RWY 05: 9.2 kt HW 7.7 kt LCW
Visibility9999 m
Phenomena:N/A
Clouds:Overcast 011 Hf
Expected CloudBase > 400 ft AGL from Temp-Dew spread
Ceiling1,100 ft
Temp-8°C (ISA -23)
Dew Point-9°C (93% RH)
AAT-15.3°C
QNH1010 hPa
Density Alt-2,654 ft
Elevation52 ft
Report Wrong Elevation
Raw Report
PASA 231456Z AUTO 02012G16KT 10SM OVC011 M08/M09 A2984 RMK AO2
UPB45E55SNB36E45 SLP108 P0000 60000 T10781094 51016 FZRANO
$=

Extra information for PASA:More info

Metar Taf Metar & Taf Last 4 Metars F.Rules Stats Wind Profile Meteogram Temp Stats Airport Information Weather charts Add Link Nearby VenuesMetar ALERT Operation Metar Decoded Social comments

AIRNAV info for PASA